Pintada, New Mexico
Current Conditions -  °F | °C
As of 12:53 AM on Thursday 27 Nov 2014 (Local Time) from KCQC Reporting Station
Clear Clear  
Wind Chill: 24°   Ceiling: Unl
Heat Index: 32°   Visibility: 10mi
Dew Point: 21°   Wind: 10mph
Humidity: 64%   Direction: 280°W
Pressure: 30.41"   Gusts: NA
Location:  34.8581°N, 104.704°W
Report Text: KCQC 270753Z AUTO 28009KT 10SM CLR 00/M06 A3041 RMK AO2 SLP271 T00001061
Loading
Personal Weather Stations






























Interactive Weather Map New forecast layout! Learn more

10-Day Weather Forecast

Advertisements
Track Severe Weather on mobile